SRV160M SAEZ-SBGL
Flight info
| Callsign | SRV160M |
|---|---|
| Flight time | 1h 26m |
| Altitude | 37000 |
| Route | KUKEN1E KUKEN UM654 GAMOT DCT USTUN DCT DOKRO UN857 AKNUB |
| Aircraft | CONC/H-SDE2E3FGHIRYW/X |
Departure
| Time | 2026-04-28 00:40 |
|---|---|
| Airport | Ezeiza International Airport - Ministro Pistarini (SAEZ) |
Arrival
| Time | 2026-04-28 02:06 |
|---|---|
| Airport | Rio Galeão – Tom Jobim International Airport (SBGL) |
| Time | Latitude | Longitude | Altitude | Speed | Heading |
|---|---|---|---|---|---|
| 2026-04-28 00:21 | -34.81618 | -58.53968 | 82 ft | 2 kts | 321° |
| 2026-04-28 00:22 | -34.81639 | -58.53950 | 84 ft | 4 kts | 316° |
| 2026-04-28 00:22 | -34.81658 | -58.53926 | 86 ft | 4 kts | 316° |
| 2026-04-28 00:22 | -34.81672 | -58.53906 | 85 ft | 4 kts | 326° |
| 2026-04-28 00:22 | -34.81688 | -58.53883 | 86 ft | 3 kts | 351° |
| 2026-04-28 00:23 | -34.81706 | -58.53869 | 86 ft | 4 kts | 21° |
| 2026-04-28 00:23 | -34.81722 | -58.53853 | 84 ft | 4 kts | 67° |
| 2026-04-28 00:23 | -34.81731 | -58.53877 | 87 ft | 4 kts | 79° |
| 2026-04-28 00:23 | -34.81731 | -58.53908 | 85 ft | 3 kts | 61° |
| 2026-04-28 00:24 | -34.81734 | -58.53916 | 87 ft | 0 kts | 60° |
| 2026-04-28 00:31 | -34.81725 | -58.53896 | 84 ft | 5 kts | 59° |
| 2026-04-28 00:32 | -34.81710 | -58.53860 | 84 ft | 4 kts | 68° |
| 2026-04-28 00:32 | -34.81707 | -58.53811 | 86 ft | 7 kts | 92° |
| 2026-04-28 00:32 | -34.81722 | -58.53755 | 91 ft | 7 kts | 115° |
| 2026-04-28 00:32 | -34.81762 | -58.53714 | 83 ft | 7 kts | 150° |
| 2026-04-28 00:33 | -34.81808 | -58.53685 | 83 ft | 9 kts | 153° |
| 2026-04-28 00:33 | -34.81878 | -58.53637 | 85 ft | 15 kts | 144° |
| 2026-04-28 00:33 | -34.81930 | -58.53503 | 83 ft | 21 kts | 104° |
| 2026-04-28 00:33 | -34.81966 | -58.53327 | 85 ft | 21 kts | 104° |
| 2026-04-28 00:34 | -34.81999 | -58.53150 | 86 ft | 22 kts | 104° |
| 2026-04-28 00:34 | -34.82037 | -58.52963 | 86 ft | 24 kts | 104° |
| 2026-04-28 00:34 | -34.82081 | -58.52746 | 87 ft | 29 kts | 104° |
| 2026-04-28 00:34 | -34.82092 | -58.52693 | 86 ft | 29 kts | 104° |
| 2026-04-28 00:35 | -34.82129 | -58.52506 | 85 ft | 31 kts | 103° |
| 2026-04-28 00:35 | -34.82137 | -58.52465 | 84 ft | 31 kts | 103° |
| 2026-04-28 00:36 | -34.82168 | -58.52311 | 85 ft | 31 kts | 104° |
| 2026-04-28 00:36 | -34.82199 | -58.52156 | 85 ft | 29 kts | 104° |
| 2026-04-28 00:36 | -34.82247 | -58.51912 | 84 ft | 29 kts | 103° |
| 2026-04-28 00:37 | -34.82280 | -58.51796 | 85 ft | 9 kts | 126° |
| 2026-04-28 00:37 | -34.82318 | -58.51787 | 86 ft | 3 kts | 186° |
| 2026-04-28 00:37 | -34.82331 | -58.51790 | 87 ft | 1 kts | 189° |
| 2026-04-28 00:37 | -34.82345 | -58.51793 | 83 ft | 7 kts | 190° |
| 2026-04-28 00:38 | -34.82413 | -58.51810 | 86 ft | 15 kts | 192° |
| 2026-04-28 00:38 | -34.82522 | -58.51838 | 92 ft | 9 kts | 192° |
| 2026-04-28 00:38 | -34.82532 | -58.51862 | 92 ft | 3 kts | 256° |
| 2026-04-28 00:38 | -34.82526 | -58.51881 | 92 ft | 0 kts | 282° |
| 2026-04-28 00:39 | -34.82489 | -58.52086 | 87 ft | 83 kts | 282° |
| 2026-04-28 00:39 | -34.82262 | -58.53347 | 89 ft | 218 kts | 282° |
| 2026-04-28 00:39 | -34.81922 | -58.55282 | 402 ft | 232 kts | 281° |
| 2026-04-28 00:40 | -34.81941 | -58.57231 | 804 ft | 239 kts | 246° |
| 2026-04-28 00:40 | -34.82738 | -58.58877 | 1417 ft | 219 kts | 233° |
| 2026-04-28 00:40 | -34.83656 | -58.60490 | 2248 ft | 265 kts | 231° |
| 2026-04-28 00:40 | -34.84800 | -58.62465 | 3096 ft | 294 kts | 232° |
| 2026-04-28 00:41 | -34.85993 | -58.64804 | 3928 ft | 342 kts | 237° |
| 2026-04-28 00:41 | -34.87126 | -58.67345 | 4741 ft | 343 kts | 238° |
| 2026-04-28 00:41 | -34.88696 | -58.69696 | 5576 ft | 363 kts | 216° |
| 2026-04-28 00:41 | -34.90927 | -58.70914 | 6438 ft | 359 kts | 190° |
| 2026-04-28 00:42 | -34.93418 | -58.70755 | 7265 ft | 371 kts | 165° |
| 2026-04-28 00:42 | -34.95694 | -58.69218 | 8140 ft | 386 kts | 140° |
| 2026-04-28 00:42 | -34.97376 | -58.66415 | 9057 ft | 438 kts | 117° |
| 2026-04-28 00:42 | -34.98171 | -58.62806 | 9983 ft | 444 kts | 101° |
| 2026-04-28 00:43 | -34.98517 | -58.58948 | 10785 ft | 463 kts | 101° |
| 2026-04-28 00:43 | -34.98931 | -58.55028 | 11581 ft | 470 kts | 98° |
| 2026-04-28 00:43 | -34.99024 | -58.50981 | 12386 ft | 482 kts | 92° |
| 2026-04-28 00:43 | -34.98966 | -58.46866 | 13201 ft | 488 kts | 92° |
| 2026-04-28 00:44 | -34.98873 | -58.42701 | 13997 ft | 496 kts | 91° |
| 2026-04-28 00:44 | -34.98771 | -58.38454 | 14721 ft | 507 kts | 92° |
| 2026-04-28 00:44 | -34.98671 | -58.34107 | 15459 ft | 518 kts | 92° |
| 2026-04-28 00:44 | -34.98569 | -58.29671 | 16208 ft | 528 kts | 92° |
| 2026-04-28 00:45 | -34.98464 | -58.25142 | 16998 ft | 540 kts | 93° |
| 2026-04-28 00:45 | -34.98355 | -58.20517 | 17797 ft | 551 kts | 93° |
| 2026-04-28 00:45 | -34.98243 | -58.15847 | 18583 ft | 564 kts | 93° |
| 2026-04-28 00:45 | -34.98124 | -58.11034 | 19280 ft | 568 kts | 93° |
| 2026-04-28 00:46 | -34.98004 | -58.06196 | 20010 ft | 575 kts | 93° |
| 2026-04-28 00:46 | -34.97880 | -58.01286 | 20760 ft | 581 kts | 93° |
| 2026-04-28 00:46 | -34.97753 | -57.96340 | 21532 ft | 587 kts | 93° |
| 2026-04-28 00:46 | -34.97431 | -57.91331 | 22356 ft | 600 kts | 81° |
| 2026-04-28 00:47 | -34.96084 | -57.86451 | 23236 ft | 616 kts | 64° |
| 2026-04-28 00:47 | -34.93679 | -57.82094 | 24043 ft | 625 kts | 46° |
| 2026-04-28 00:47 | -34.90404 | -57.78618 | 24828 ft | 627 kts | 30° |
| 2026-04-28 00:47 | -34.86514 | -57.76295 | 25629 ft | 622 kts | 13° |
| 2026-04-28 00:48 | -34.82294 | -57.75291 | 26450 ft | 614 kts | 356° |
| 2026-04-28 00:48 | -34.78093 | -57.75665 | 27303 ft | 602 kts | 339° |
| 2026-04-28 00:48 | -34.74213 | -57.77358 | 28115 ft | 586 kts | 323° |
| 2026-04-28 00:48 | -34.71005 | -57.80156 | 28986 ft | 564 kts | 307° |
| 2026-04-28 00:49 | -34.68664 | -57.83832 | 29898 ft | 542 kts | 290° |
| 2026-04-28 00:49 | -34.67286 | -57.88007 | 30676 ft | 530 kts | 281° |
| 2026-04-28 00:49 | -34.66181 | -57.92284 | 31362 ft | 531 kts | 282° |
| 2026-04-28 00:49 | -34.64938 | -57.96550 | 32057 ft | 536 kts | 287° |
| 2026-04-28 00:50 | -34.63006 | -58.00514 | 32903 ft | 562 kts | 304° |
| 2026-04-28 00:50 | -34.60054 | -58.03838 | 33738 ft | 598 kts | 317° |
| 2026-04-28 00:50 | -34.56390 | -58.06552 | 33932 ft | 639 kts | 329° |
| 2026-04-28 00:50 | -34.52128 | -58.08353 | 34347 ft | 672 kts | 339° |
| 2026-04-28 00:51 | -34.47601 | -58.09959 | 34793 ft | 682 kts | 335° |
| 2026-04-28 00:51 | -34.43001 | -58.11805 | 35173 ft | 692 kts | 335° |
| 2026-04-28 00:51 | -34.38463 | -58.13627 | 35464 ft | 701 kts | 335° |
| 2026-04-28 00:51 | -34.33809 | -58.15499 | 35715 ft | 708 kts | 335° |
| 2026-04-28 00:52 | -34.29098 | -58.17390 | 35929 ft | 715 kts | 335° |
| 2026-04-28 00:52 | -34.24358 | -58.19290 | 36122 ft | 721 kts | 336° |
| 2026-04-28 00:52 | -34.19551 | -58.21100 | 36260 ft | 729 kts | 342° |
| 2026-04-28 00:52 | -34.14458 | -58.21843 | 36517 ft | 750 kts | 355° |
| 2026-04-28 00:53 | -34.09198 | -58.21178 | 36924 ft | 774 kts | 8° |
| 2026-04-28 00:53 | -34.04017 | -58.19122 | 37374 ft | 798 kts | 21° |
| 2026-04-28 00:53 | -33.99148 | -58.15735 | 37789 ft | 820 kts | 33° |
| 2026-04-28 00:53 | -33.94824 | -58.11127 | 38141 ft | 839 kts | 45° |
| 2026-04-28 00:54 | -33.91252 | -58.05471 | 38501 ft | 857 kts | 57° |
| 2026-04-28 00:54 | -33.88587 | -57.98949 | 38866 ft | 874 kts | 69° |
| 2026-04-28 00:54 | -33.86960 | -57.91856 | 39163 ft | 886 kts | 79° |
| 2026-04-28 00:54 | -33.86019 | -57.84480 | 39354 ft | 895 kts | 79° |
| 2026-04-28 00:55 | -33.84511 | -57.77319 | 39559 ft | 899 kts | 69° |
| 2026-04-28 00:55 | -33.82210 | -57.70292 | 39759 ft | 903 kts | 64° |
| 2026-04-28 00:55 | -33.79496 | -57.63467 | 39912 ft | 905 kts | 60° |
| 2026-04-28 00:55 | -33.76493 | -57.56760 | 40083 ft | 910 kts | 58° |
| 2026-04-28 00:56 | -33.73330 | -57.50156 | 40231 ft | 915 kts | 57° |
| 2026-04-28 00:56 | -33.70087 | -57.43559 | 40362 ft | 919 kts | 57° |
| 2026-04-28 00:56 | -33.66797 | -57.36949 | 40492 ft | 922 kts | 56° |
| 2026-04-28 00:56 | -33.63414 | -57.30378 | 40670 ft | 924 kts | 51° |
| 2026-04-28 00:57 | -33.59594 | -57.24137 | 40839 ft | 929 kts | 51° |
| 2026-04-28 00:57 | -33.55812 | -57.17841 | 40996 ft | 934 kts | 51° |
| 2026-04-28 00:57 | -33.52009 | -57.11633 | 41125 ft | 937 kts | 51° |
| 2026-04-28 00:57 | -33.48134 | -57.05302 | 41269 ft | 942 kts | 50° |
| 2026-04-28 00:58 | -33.44261 | -56.98988 | 41920 ft | 943 kts | 50° |
| 2026-04-28 00:58 | -33.40317 | -56.92570 | 42150 ft | 964 kts | 51° |
| 2026-04-28 00:58 | -33.36319 | -56.86065 | 42517 ft | 976 kts | 50° |
| 2026-04-28 00:58 | -33.32267 | -56.79487 | 42829 ft | 986 kts | 50° |
| 2026-04-28 00:59 | -33.28178 | -56.72864 | 43155 ft | 995 kts | 50° |
| 2026-04-28 00:59 | -33.24051 | -56.66188 | 43556 ft | 1002 kts | 50° |
| 2026-04-28 00:59 | -33.19890 | -56.59467 | 44434 ft | 1005 kts | 50° |
| 2026-04-28 00:59 | -33.15724 | -56.52753 | 45237 ft | 1008 kts | 50° |
| 2026-04-28 01:00 | -33.11540 | -56.46024 | 46024 ft | 1010 kts | 50° |
| 2026-04-28 01:00 | -33.07403 | -56.39381 | 46806 ft | 1012 kts | 50° |
| 2026-04-28 01:00 | -33.03146 | -56.32556 | 47560 ft | 1015 kts | 50° |
| 2026-04-28 01:00 | -32.98905 | -56.25772 | 47628 ft | 1028 kts | 50° |
| 2026-04-28 01:01 | -32.94658 | -56.18991 | 47706 ft | 1043 kts | 50° |
| 2026-04-28 01:01 | -32.90278 | -56.12006 | 47726 ft | 1059 kts | 50° |
| 2026-04-28 01:01 | -32.85837 | -56.04941 | 47737 ft | 1075 kts | 50° |
| 2026-04-28 01:01 | -32.81327 | -55.97779 | 47726 ft | 1090 kts | 50° |
| 2026-04-28 01:02 | -32.76748 | -55.90520 | 47990 ft | 1100 kts | 50° |
| 2026-04-28 01:02 | -32.72147 | -55.83240 | 48786 ft | 1105 kts | 50° |
| 2026-04-28 01:02 | -32.67513 | -55.75923 | 49565 ft | 1109 kts | 50° |
| 2026-04-28 01:02 | -32.62865 | -55.68600 | 50347 ft | 1113 kts | 50° |
| 2026-04-28 01:03 | -32.58203 | -55.61268 | 51120 ft | 1116 kts | 50° |
| 2026-04-28 01:03 | -32.53522 | -55.53921 | 51897 ft | 1118 kts | 50° |
| 2026-04-28 01:03 | -32.48826 | -55.46563 | 52578 ft | 1120 kts | 49° |
| 2026-04-28 01:03 | -32.44103 | -55.39180 | 53363 ft | 1121 kts | 49° |
| 2026-04-28 01:04 | -32.40987 | -55.34315 | 53878 ft | 1122 kts | 49° |
| 2026-04-28 01:04 | -32.36265 | -55.26957 | 54671 ft | 1123 kts | 49° |
| 2026-04-28 01:04 | -32.31538 | -55.19604 | 55436 ft | 1123 kts | 49° |
| 2026-04-28 01:04 | -32.26811 | -55.12267 | 56214 ft | 1122 kts | 49° |
| 2026-04-28 01:05 | -32.20540 | -55.02554 | 57252 ft | 1121 kts | 49° |
| 2026-04-28 01:05 | -32.17344 | -54.97611 | 57760 ft | 1115 kts | 49° |
| 2026-04-28 01:05 | -32.12703 | -54.90444 | 58547 ft | 1087 kts | 48° |
| 2026-04-28 01:05 | -32.08123 | -54.83393 | 59308 ft | 1067 kts | 48° |
| 2026-04-28 01:06 | -32.03653 | -54.76520 | 59702 ft | 1056 kts | 48° |
| 2026-04-28 01:06 | -31.99211 | -54.69710 | 59903 ft | 1065 kts | 48° |
| 2026-04-28 01:06 | -31.94683 | -54.62768 | 60029 ft | 1069 kts | 48° |
| 2026-04-28 01:07 | -31.85583 | -54.48861 | 59625 ft | 1079 kts | 48° |
| 2026-04-28 01:07 | -31.80969 | -54.41832 | 59091 ft | 1090 kts | 47° |
| 2026-04-28 01:07 | -31.76337 | -54.34783 | 59750 ft | 1093 kts | 47° |
| 2026-04-28 01:07 | -31.71669 | -54.27697 | 59995 ft | 1100 kts | 47° |
| 2026-04-28 01:08 | -31.66968 | -54.20573 | 60041 ft | 1107 kts | 47° |
| 2026-04-28 01:08 | -31.57450 | -54.06190 | 60080 ft | 1123 kts | 47° |
| 2026-04-28 01:09 | -31.47776 | -53.91625 | 60097 ft | 1139 kts | 47° |
| 2026-04-28 01:09 | -31.37950 | -53.76889 | 60136 ft | 1155 kts | 47° |
| 2026-04-28 01:10 | -31.28044 | -53.62088 | 60111 ft | 1168 kts | 47° |
| 2026-04-28 01:10 | -31.17968 | -53.47091 | 59995 ft | 1176 kts | 47° |
| 2026-04-28 01:11 | -31.07806 | -53.32025 | 60117 ft | 1185 kts | 47° |
| 2026-04-28 01:11 | -30.97566 | -53.16901 | 60110 ft | 1193 kts | 47° |
| 2026-04-28 01:12 | -30.87231 | -53.01697 | 60109 ft | 1202 kts | 47° |
| 2026-04-28 01:12 | -30.76788 | -52.86393 | 60106 ft | 1210 kts | 47° |
| 2026-04-28 01:13 | -30.66271 | -52.71039 | 60093 ft | 1218 kts | 47° |
| 2026-04-28 01:13 | -30.50314 | -52.47859 | 60101 ft | 1229 kts | 46° |
| 2026-04-28 01:14 | -30.39633 | -52.32419 | 60124 ft | 1236 kts | 46° |
| 2026-04-28 01:14 | -30.28829 | -52.16862 | 60099 ft | 1236 kts | 46° |
| 2026-04-28 01:15 | -30.23498 | -52.09202 | 60084 ft | 1212 kts | 46° |
| 2026-04-28 01:15 | -30.18221 | -52.01646 | 60075 ft | 1208 kts | 46° |
| 2026-04-28 01:15 | -30.07619 | -51.86497 | 60115 ft | 1216 kts | 46° |
| 2026-04-28 01:16 | -29.96913 | -51.71255 | 60114 ft | 1224 kts | 46° |
| 2026-04-28 01:16 | -29.86125 | -51.55955 | 59989 ft | 1226 kts | 46° |
| 2026-04-28 01:17 | -29.75478 | -51.40914 | 60085 ft | 1219 kts | 46° |
| 2026-04-28 01:17 | -29.64726 | -51.25780 | 60097 ft | 1226 kts | 46° |
| 2026-04-28 01:18 | -29.53866 | -51.10551 | 60106 ft | 1233 kts | 46° |
| 2026-04-28 01:18 | -29.43056 | -50.95447 | 59947 ft | 1218 kts | 46° |
| 2026-04-28 01:19 | -29.32313 | -50.80494 | 59881 ft | 1209 kts | 46° |
| 2026-04-28 01:19 | -29.21645 | -50.65700 | 60002 ft | 1213 kts | 46° |
| 2026-04-28 01:20 | -29.10845 | -50.50775 | 60047 ft | 1220 kts | 46° |
| 2026-04-28 01:20 | -28.99974 | -50.35807 | 59974 ft | 1220 kts | 46° |
| 2026-04-28 01:21 | -28.89195 | -50.21020 | 60038 ft | 1204 kts | 45° |
| 2026-04-28 01:21 | -28.78502 | -50.06403 | 60050 ft | 1195 kts | 45° |
| 2026-04-28 01:22 | -28.67856 | -49.91901 | 60056 ft | 1188 kts | 45° |
| 2026-04-28 01:22 | -28.57212 | -49.77453 | 59991 ft | 1196 kts | 45° |
| 2026-04-28 01:23 | -28.46582 | -49.63071 | 60047 ft | 1193 kts | 45° |
| 2026-04-28 01:23 | -28.35884 | -49.48648 | 59960 ft | 1191 kts | 45° |
| 2026-04-28 01:24 | -28.25213 | -49.34311 | 60020 ft | 1188 kts | 45° |
| 2026-04-28 01:24 | -28.14539 | -49.20019 | 60006 ft | 1185 kts | 45° |
| 2026-04-28 01:25 | -28.03865 | -49.05775 | 59974 ft | 1183 kts | 45° |
| 2026-04-28 01:25 | -27.93275 | -48.91690 | 60031 ft | 1182 kts | 45° |
| 2026-04-28 01:26 | -27.82606 | -48.77546 | 60006 ft | 1181 kts | 45° |
| 2026-04-28 01:26 | -27.71912 | -48.63417 | 59930 ft | 1181 kts | 45° |
| 2026-04-28 01:27 | -27.61230 | -48.49350 | 59959 ft | 1180 kts | 45° |
| 2026-04-28 01:27 | -27.50536 | -48.35314 | 59960 ft | 1180 kts | 45° |
| 2026-04-28 01:28 | -27.39804 | -48.21274 | 59958 ft | 1185 kts | 45° |
| 2026-04-28 01:28 | -27.28974 | -48.07151 | 59993 ft | 1194 kts | 45° |
| 2026-04-28 01:29 | -27.18144 | -47.93073 | 59967 ft | 1200 kts | 45° |
| 2026-04-28 01:29 | -27.07195 | -47.78889 | 59961 ft | 1204 kts | 45° |
| 2026-04-28 01:30 | -26.96218 | -47.64713 | 59978 ft | 1202 kts | 45° |
| 2026-04-28 01:30 | -26.85229 | -47.50568 | 59929 ft | 1203 kts | 45° |
| 2026-04-28 01:31 | -26.74209 | -47.36429 | 59946 ft | 1204 kts | 45° |
| 2026-04-28 01:31 | -26.63172 | -47.22313 | 59979 ft | 1206 kts | 45° |
| 2026-04-28 01:32 | -26.52149 | -47.08259 | 59963 ft | 1194 kts | 45° |
| 2026-04-28 01:32 | -26.41298 | -46.94471 | 59901 ft | 1183 kts | 45° |
| 2026-04-28 01:33 | -26.30477 | -46.80761 | 59969 ft | 1174 kts | 45° |
| 2026-04-28 01:33 | -26.19725 | -46.67180 | 59984 ft | 1169 kts | 45° |
| 2026-04-28 01:34 | -26.08891 | -46.53538 | 59960 ft | 1180 kts | 45° |
| 2026-04-28 01:34 | -25.97949 | -46.39800 | 59989 ft | 1190 kts | 45° |
| 2026-04-28 01:35 | -25.86916 | -46.25991 | 59981 ft | 1198 kts | 45° |
| 2026-04-28 01:35 | -25.75846 | -46.12179 | 59975 ft | 1198 kts | 45° |
| 2026-04-28 01:36 | -25.64805 | -45.98444 | 59978 ft | 1189 kts | 45° |
| 2026-04-28 01:36 | -25.53873 | -45.84884 | 59968 ft | 1186 kts | 45° |
| 2026-04-28 01:37 | -25.42857 | -45.71263 | 59991 ft | 1185 kts | 45° |
| 2026-04-28 01:37 | -25.31858 | -45.57701 | 59964 ft | 1183 kts | 45° |
| 2026-04-28 01:38 | -25.20845 | -45.44163 | 59776 ft | 1184 kts | 45° |
| 2026-04-28 01:38 | -25.15362 | -45.37435 | 59015 ft | 1170 kts | 45° |
| 2026-04-28 01:38 | -25.09960 | -45.30820 | 58307 ft | 1146 kts | 45° |
| 2026-04-28 01:39 | -25.04687 | -45.24369 | 57601 ft | 1120 kts | 45° |
| 2026-04-28 01:39 | -24.99512 | -45.18049 | 56871 ft | 1096 kts | 45° |
| 2026-04-28 01:39 | -24.94528 | -45.11971 | 56167 ft | 1070 kts | 45° |
| 2026-04-28 01:39 | -24.91179 | -45.07890 | 55692 ft | 1053 kts | 45° |
| 2026-04-28 01:40 | -24.84718 | -45.00030 | 54765 ft | 1036 kts | 45° |
| 2026-04-28 01:40 | -24.79907 | -44.94183 | 54034 ft | 1027 kts | 45° |
| 2026-04-28 01:40 | -24.75134 | -44.88391 | 53335 ft | 1016 kts | 45° |
| 2026-04-28 01:40 | -24.70410 | -44.82663 | 52624 ft | 1005 kts | 45° |
| 2026-04-28 01:41 | -24.65741 | -44.77010 | 51919 ft | 995 kts | 45° |
| 2026-04-28 01:41 | -24.61101 | -44.71401 | 51212 ft | 985 kts | 45° |
| 2026-04-28 01:41 | -24.56518 | -44.65864 | 50503 ft | 975 kts | 45° |
| 2026-04-28 01:41 | -24.51968 | -44.60376 | 49794 ft | 964 kts | 44° |
| 2026-04-28 01:42 | -24.47193 | -44.55284 | 49107 ft | 946 kts | 35° |
| 2026-04-28 01:42 | -24.41824 | -44.51256 | 48492 ft | 926 kts | 25° |
| 2026-04-28 01:42 | -24.36060 | -44.48259 | 47852 ft | 912 kts | 19° |
| 2026-04-28 01:42 | -24.30200 | -44.45653 | 47142 ft | 903 kts | 18° |
| 2026-04-28 01:43 | -24.24397 | -44.43148 | 46433 ft | 894 kts | 20° |
| 2026-04-28 01:43 | -24.18825 | -44.40167 | 45750 ft | 887 kts | 24° |
| 2026-04-28 01:43 | -24.13401 | -44.37174 | 45038 ft | 877 kts | 23° |
| 2026-04-28 01:43 | -24.07991 | -44.34161 | 44222 ft | 869 kts | 24° |
| 2026-04-28 01:44 | -24.02641 | -44.31177 | 43350 ft | 858 kts | 24° |
| 2026-04-28 01:44 | -23.97329 | -44.28220 | 42499 ft | 849 kts | 24° |
| 2026-04-28 01:44 | -23.92084 | -44.25288 | 41658 ft | 842 kts | 26° |
| 2026-04-28 01:44 | -23.87200 | -44.21749 | 40930 ft | 841 kts | 37° |
| 2026-04-28 01:45 | -23.83051 | -44.17245 | 40229 ft | 844 kts | 49° |
| 2026-04-28 01:45 | -23.79774 | -44.11939 | 39546 ft | 839 kts | 60° |
| 2026-04-28 01:45 | -23.77596 | -44.06304 | 38867 ft | 795 kts | 70° |
| 2026-04-28 01:45 | -23.75815 | -44.00794 | 38052 ft | 745 kts | 61° |
| 2026-04-28 01:46 | -23.73252 | -43.96115 | 37261 ft | 694 kts | 47° |
| 2026-04-28 01:46 | -23.69952 | -43.92446 | 36529 ft | 669 kts | 33° |
| 2026-04-28 01:46 | -23.66033 | -43.89848 | 35827 ft | 653 kts | 18° |
| 2026-04-28 01:46 | -23.61743 | -43.88451 | 35155 ft | 637 kts | 4° |
| 2026-04-28 01:47 | -23.57390 | -43.88321 | 34503 ft | 620 kts | 349° |
| 2026-04-28 01:47 | -23.53261 | -43.89439 | 33833 ft | 607 kts | 334° |
| 2026-04-28 01:47 | -23.49657 | -43.91694 | 33093 ft | 584 kts | 319° |
| 2026-04-28 01:47 | -23.46878 | -43.94707 | 32350 ft | 566 kts | 311° |
| 2026-04-28 01:48 | -23.43926 | -43.97500 | 31642 ft | 561 kts | 327° |
| 2026-04-28 01:48 | -23.40410 | -43.99206 | 31000 ft | 542 kts | 343° |
| 2026-04-28 01:48 | -23.36767 | -43.99872 | 30337 ft | 517 kts | 350° |
| 2026-04-28 01:48 | -23.33248 | -44.00185 | 29567 ft | 502 kts | 352° |
| 2026-04-28 01:49 | -23.29756 | -44.00349 | 28761 ft | 501 kts | 356° |
| 2026-04-28 01:49 | -23.26279 | -44.00216 | 27990 ft | 499 kts | 358° |
| 2026-04-28 01:49 | -23.22828 | -44.00007 | 27233 ft | 494 kts | 359° |
| 2026-04-28 01:49 | -23.19451 | -43.99788 | 26502 ft | 490 kts | 359° |
| 2026-04-28 01:50 | -23.16058 | -43.99570 | 25783 ft | 486 kts | 359° |
| 2026-04-28 01:50 | -23.12690 | -43.99356 | 25088 ft | 482 kts | 358° |
| 2026-04-28 01:50 | -23.09346 | -43.99148 | 24381 ft | 479 kts | 359° |
| 2026-04-28 01:50 | -23.06034 | -43.98939 | 23724 ft | 476 kts | 359° |
| 2026-04-28 01:51 | -23.02736 | -43.98731 | 22963 ft | 472 kts | 359° |
| 2026-04-28 01:51 | -22.99470 | -43.98526 | 22187 ft | 467 kts | 359° |
| 2026-04-28 01:51 | -22.96243 | -43.98299 | 21435 ft | 464 kts | 4° |
| 2026-04-28 01:51 | -22.93134 | -43.97304 | 20742 ft | 472 kts | 24° |
| 2026-04-28 01:52 | -22.90484 | -43.95169 | 20044 ft | 480 kts | 45° |
| 2026-04-28 01:52 | -22.88644 | -43.92156 | 19428 ft | 480 kts | 65° |
| 2026-04-28 01:52 | -22.87497 | -43.88818 | 18811 ft | 478 kts | 70° |
| 2026-04-28 01:52 | -22.86472 | -43.85409 | 18137 ft | 473 kts | 71° |
| 2026-04-28 01:53 | -22.85467 | -43.82041 | 17374 ft | 466 kts | 70° |
| 2026-04-28 01:53 | -22.84253 | -43.78812 | 16619 ft | 457 kts | 63° |
| 2026-04-28 01:53 | -22.83337 | -43.76721 | 16118 ft | 453 kts | 63° |
| 2026-04-28 01:53 | -22.82015 | -43.73652 | 15390 ft | 447 kts | 65° |
| 2026-04-28 01:54 | -22.80876 | -43.70543 | 14679 ft | 441 kts | 72° |
| 2026-04-28 01:54 | -22.80077 | -43.67398 | 13987 ft | 435 kts | 74° |
| 2026-04-28 01:54 | -22.78994 | -43.64381 | 13249 ft | 425 kts | 55° |
| 2026-04-28 01:54 | -22.77033 | -43.62073 | 12515 ft | 414 kts | 32° |
| 2026-04-28 01:55 | -22.74471 | -43.60800 | 11836 ft | 403 kts | 9° |
| 2026-04-28 01:55 | -22.71727 | -43.60735 | 11164 ft | 390 kts | 346° |
| 2026-04-28 01:55 | -22.69174 | -43.61569 | 10475 ft | 379 kts | 346° |
| 2026-04-28 01:55 | -22.66563 | -43.61710 | 9766 ft | 375 kts | 2° |
| 2026-04-28 01:56 | -22.64006 | -43.61945 | 9006 ft | 364 kts | 339° |
| 2026-04-28 01:56 | -22.61832 | -43.63229 | 8354 ft | 352 kts | 323° |
| 2026-04-28 01:56 | -22.59923 | -43.64835 | 7689 ft | 341 kts | 320° |
| 2026-04-28 01:56 | -22.58137 | -43.66453 | 6978 ft | 329 kts | 319° |
| 2026-04-28 01:57 | -22.56431 | -43.68044 | 6270 ft | 319 kts | 319° |
| 2026-04-28 01:57 | -22.54561 | -43.69206 | 5540 ft | 304 kts | 346° |
| 2026-04-28 01:57 | -22.52543 | -43.69178 | 4860 ft | 294 kts | 18° |
| 2026-04-28 01:57 | -22.50851 | -43.67986 | 4185 ft | 295 kts | 50° |
| 2026-04-28 01:58 | -22.49999 | -43.65991 | 3533 ft | 296 kts | 82° |
| 2026-04-28 01:58 | -22.50253 | -43.63802 | 2904 ft | 296 kts | 115° |
| 2026-04-28 01:58 | -22.51503 | -43.62076 | 2571 ft | 285 kts | 137° |
| 2026-04-28 01:58 | -22.52928 | -43.60742 | 2762 ft | 256 kts | 144° |
| 2026-04-28 01:59 | -22.54430 | -43.59942 | 2791 ft | 238 kts | 168° |
| 2026-04-28 01:59 | -22.56079 | -43.59760 | 2328 ft | 237 kts | 172° |
| 2026-04-28 01:59 | -22.57657 | -43.59458 | 2306 ft | 227 kts | 166° |
| 2026-04-28 01:59 | -22.59151 | -43.59011 | 2269 ft | 216 kts | 162° |
| 2026-04-28 02:00 | -22.60555 | -43.58481 | 1740 ft | 216 kts | 155° |
| 2026-04-28 02:00 | -22.61864 | -43.57759 | 1586 ft | 209 kts | 143° |
| 2026-04-28 02:00 | -22.63127 | -43.56618 | 1913 ft | 261 kts | 131° |
| 2026-04-28 02:00 | -22.64044 | -43.55176 | 2239 ft | 210 kts | 116° |
| 2026-04-28 02:01 | -22.64640 | -43.53819 | 2065 ft | 194 kts | 108° |
| 2026-04-28 02:01 | -22.64945 | -43.52422 | 1803 ft | 188 kts | 91° |
| 2026-04-28 02:01 | -22.65063 | -43.51061 | 1638 ft | 180 kts | 103° |
| 2026-04-28 02:01 | -22.65574 | -43.49861 | 1496 ft | 173 kts | 123° |
| 2026-04-28 02:02 | -22.66337 | -43.48704 | 1927 ft | 196 kts | 125° |
| 2026-04-28 02:02 | -22.67277 | -43.47381 | 2202 ft | 228 kts | 128° |
| 2026-04-28 02:02 | -22.68275 | -43.46021 | 3035 ft | 251 kts | 127° |
| 2026-04-28 02:02 | -22.69301 | -43.44534 | 3313 ft | 235 kts | 126° |
| 2026-04-28 02:03 | -22.70206 | -43.43147 | 3438 ft | 232 kts | 122° |
| 2026-04-28 02:03 | -22.71141 | -43.41586 | 3415 ft | 235 kts | 122° |
| 2026-04-28 02:03 | -22.72027 | -43.40125 | 3006 ft | 230 kts | 124° |
| 2026-04-28 02:03 | -22.72972 | -43.38707 | 2793 ft | 255 kts | 127° |
| 2026-04-28 02:04 | -22.74041 | -43.37183 | 3052 ft | 244 kts | 127° |
| 2026-04-28 02:04 | -22.75069 | -43.35745 | 2637 ft | 240 kts | 127° |
| 2026-04-28 02:04 | -22.76073 | -43.34302 | 2213 ft | 237 kts | 124° |
| 2026-04-28 02:04 | -22.76996 | -43.32848 | 1864 ft | 233 kts | 122° |
| 2026-04-28 02:05 | -22.77880 | -43.31376 | 1289 ft | 232 kts | 123° |
| 2026-04-28 02:05 | -22.78790 | -43.29955 | 836 ft | 225 kts | 126° |
| 2026-04-28 02:05 | -22.79705 | -43.28632 | 473 ft | 213 kts | 127° |
| 2026-04-28 02:05 | -22.80565 | -43.27376 | 203 ft | 204 kts | 126° |
| 2026-04-28 02:06 | -22.81379 | -43.26159 | 45 ft | 191 kts | 126° |
| 2026-04-28 02:06 | -22.82072 | -43.25118 | 31 ft | 145 kts | 126° |
| 2026-04-28 02:06 | -22.82516 | -43.24450 | 26 ft | 56 kts | 126° |
| 2026-04-28 02:06 | -22.82630 | -43.24280 | 28 ft | 19 kts | 126° |
| 2026-04-28 02:07 | -22.82680 | -43.24226 | 29 ft | 5 kts | 160° |
| 2026-04-28 02:07 | -22.82710 | -43.24214 | 29 ft | 4 kts | 160° |
| 2026-04-28 02:07 | -22.82744 | -43.24199 | 29 ft | 7 kts | 156° |
| 2026-04-28 02:07 | -22.82798 | -43.24174 | 30 ft | 8 kts | 156° |
| 2026-04-28 02:08 | -22.82814 | -43.24166 | 30 ft | 0 kts | 156° |